sensor_id;sensor_type;location;lat;lon;timestamp;P1;durP1;ratioP1;P2;durP2;ratioP2
21330;SDS011;10824;51.632;4.950;2023-07-08T00:01:12;2.55;;;1.10;;
21330;SDS011;10824;51.632;4.950;2023-07-08T00:03:41;6.60;;;1.88;;
21330;SDS011;10824;51.632;4.950;2023-07-08T00:06:19;2.90;;;1.60;;
21330;SDS011;10824;51.632;4.950;2023-07-08T00:08:48;3.70;;;2.65;;
21330;SDS011;10824;51.632;4.950;2023-07-08T00:11:15;5.60;;;1.45;;
21330;SDS011;10824;51.632;4.950;2023-07-08T00:13:43;3.90;;;1.40;;
21330;SDS011;10824;51.632;4.950;2023-07-08T00:16:11;2.80;;;1.30;;
21330;SDS011;10824;51.632;4.950;2023-07-08T00:18:40;2.90;;;1.35;;
21330;SDS011;10824;51.632;4.950;2023-07-08T00:21:11;3.20;;;1.98;;
21330;SDS011;10824;51.632;4.950;2023-07-08T00:23:50;4.97;;;1.45;;
21330;SDS011;10824;51.632;4.950;2023-07-08T00:26:30;2.58;;;1.27;;
21330;SDS011;10824;51.632;4.950;2023-07-08T00:28:59;1.77;;;1.27;;
21330;SDS011;10824;51.632;4.950;2023-07-08T00:31:26;2.97;;;1.02;;
21330;SDS011;10824;51.632;4.950;2023-07-08T00:33:53;3.05;;;1.20;;
21330;SDS011;10824;51.632;4.950;2023-07-08T00:36:23;6.85;;;1.30;;
21330;SDS011;10824;51.632;4.950;2023-07-08T00:38:53;1.98;;;1.20;;
21330;SDS011;10824;51.632;4.950;2023-07-08T00:41:37;1.20;;;1.10;;
21330;SDS011;10824;51.632;4.950;2023-07-08T00:44:12;3.55;;;1.10;;
21330;SDS011;10824;51.632;4.950;2023-07-08T00:49:17;3.63;;;1.45;;
21330;SDS011;10824;51.632;4.950;2023-07-08T00:52:19;2.15;;;1.20;;
21330;SDS011;10824;51.632;4.950;2023-07-08T00:54:54;2.13;;;1.10;;
21330;SDS011;10824;51.632;4.950;2023-07-08T00:57:24;2.22;;;1.50;;
21330;SDS011;10824;51.632;4.950;2023-07-08T01:00:02;2.47;;;1.23;;
21330;SDS011;10824;51.632;4.950;2023-07-08T01:02:41;5.22;;;1.55;;
21330;SDS011;10824;51.632;4.950;2023-07-08T01:05:20;3.58;;;1.13;;
21330;SDS011;10824;51.632;4.950;2023-07-08T01:07:51;1.67;;;1.52;;
21330;SDS011;10824;51.632;4.950;2023-07-08T01:10:24;2.15;;;1.10;;
21330;SDS011;10824;51.632;4.950;2023-07-08T01:12:57;2.83;;;1.52;;
21330;SDS011;10824;51.632;4.950;2023-07-08T01:15:31;3.35;;;1.45;;
21330;SDS011;10824;51.632;4.950;2023-07-08T01:18:05;2.40;;;1.10;;
21330;SDS011;10824;51.632;4.950;2023-07-08T01:20:33;1.73;;;1.02;;
21330;SDS011;10824;51.632;4.950;2023-07-08T01:23:00;2.80;;;1.42;;
21330;SDS011;10824;51.632;4.950;2023-07-08T01:25:27;2.00;;;1.50;;
21330;SDS011;10824;51.632;4.950;2023-07-08T01:27:57;2.75;;;1.67;;
21330;SDS011;10824;51.632;4.950;2023-07-08T01:30:26;3.38;;;1.20;;
21330;SDS011;10824;51.632;4.950;2023-07-08T01:32:59;3.60;;;1.20;;
21330;SDS011;10824;51.632;4.950;2023-07-08T01:35:31;3.45;;;1.23;;
21330;SDS011;10824;51.632;4.950;2023-07-08T01:37:59;2.38;;;0.98;;
21330;SDS011;10824;51.632;4.950;2023-07-08T01:40:32;2.75;;;1.08;;
21330;SDS011;10824;51.632;4.950;2023-07-08T01:43:01;2.60;;;1.35;;
21330;SDS011;10824;51.632;4.950;2023-07-08T01:45:32;2.13;;;1.00;;
21330;SDS011;10824;51.632;4.950;2023-07-08T01:48:04;1.65;;;1.33;;
21330;SDS011;10824;51.632;4.950;2023-07-08T01:50:35;3.72;;;1.17;;
21330;SDS011;10824;51.632;4.950;2023-07-08T01:53:22;2.30;;;1.15;;
21330;SDS011;10824;51.632;4.950;2023-07-08T01:55:54;3.03;;;1.20;;
21330;SDS011;10824;51.632;4.950;2023-07-08T01:58:21;2.13;;;1.20;;
21330;SDS011;10824;51.632;4.950;2023-07-08T02:00:48;1.08;;;0.95;;
21330;SDS011;10824;51.632;4.950;2023-07-08T02:03:16;2.92;;;1.20;;
21330;SDS011;10824;51.632;4.950;2023-07-08T02:05:44;4.03;;;1.55;;
21330;SDS011;10824;51.632;4.950;2023-07-08T02:08:11;3.15;;;1.30;;
21330;SDS011;10824;51.632;4.950;2023-07-08T02:10:40;2.08;;;1.08;;
21330;SDS011;10824;51.632;4.950;2023-07-08T02:13:08;2.63;;;1.25;;
21330;SDS011;10824;51.632;4.950;2023-07-08T02:15:37;3.15;;;1.42;;
21330;SDS011;10824;51.632;4.950;2023-07-08T02:18:04;7.60;;;1.15;;
21330;SDS011;10824;51.632;4.950;2023-07-08T02:20:32;1.48;;;1.00;;
21330;SDS011;10824;51.632;4.950;2023-07-08T02:22:59;2.75;;;1.27;;
21330;SDS011;10824;51.632;4.950;2023-07-08T02:25:26;3.17;;;1.63;;
21330;SDS011;10824;51.632;4.950;2023-07-08T02:27:53;2.28;;;1.08;;
21330;SDS011;10824;51.632;4.950;2023-07-08T02:30:24;2.88;;;1.83;;
21330;SDS011;10824;51.632;4.950;2023-07-08T02:32:52;4.80;;;1.20;;
21330;SDS011;10824;51.632;4.950;2023-07-08T02:35:25;3.28;;;1.25;;
21330;SDS011;10824;51.632;4.950;2023-07-08T02:37:55;3.00;;;1.20;;
21330;SDS011;10824;51.632;4.950;2023-07-08T02:40:25;1.92;;;1.25;;
21330;SDS011;10824;51.632;4.950;2023-07-08T02:42:53;2.20;;;1.00;;
21330;SDS011;10824;51.632;4.950;2023-07-08T02:45:23;3.03;;;1.40;;
21330;SDS011;10824;51.632;4.950;2023-07-08T02:47:50;2.85;;;1.50;;
21330;SDS011;10824;51.632;4.950;2023-07-08T02:50:17;4.63;;;1.80;;
21330;SDS011;10824;51.632;4.950;2023-07-08T02:52:45;3.78;;;1.63;;
21330;SDS011;10824;51.632;4.950;2023-07-08T02:55:12;2.33;;;1.35;;
21330;SDS011;10824;51.632;4.950;2023-07-08T02:57:41;3.78;;;1.60;;
21330;SDS011;10824;51.632;4.950;2023-07-08T03:00:08;1.80;;;1.33;;
21330;SDS011;10824;51.632;4.950;2023-07-08T03:02:35;2.20;;;1.30;;
21330;SDS011;10824;51.632;4.950;2023-07-08T03:05:02;3.05;;;1.20;;
21330;SDS011;10824;51.632;4.950;2023-07-08T03:07:31;2.70;;;1.33;;
21330;SDS011;10824;51.632;4.950;2023-07-08T03:09:58;1.50;;;1.25;;
21330;SDS011;10824;51.632;4.950;2023-07-08T03:12:26;1.60;;;1.20;;
21330;SDS011;10824;51.632;4.950;2023-07-08T03:14:53;2.50;;;1.10;;
21330;SDS011;10824;51.632;4.950;2023-07-08T03:17:20;3.90;;;1.05;;
21330;SDS011;10824;51.632;4.950;2023-07-08T03:19:47;2.55;;;1.23;;
21330;SDS011;10824;51.632;4.950;2023-07-08T03:22:17;3.97;;;1.42;;
21330;SDS011;10824;51.632;4.950;2023-07-08T03:24:44;3.45;;;1.40;;
21330;SDS011;10824;51.632;4.950;2023-07-08T03:27:17;2.38;;;1.00;;
21330;SDS011;10824;51.632;4.950;2023-07-08T03:29:47;2.53;;;1.42;;
21330;SDS011;10824;51.632;4.950;2023-07-08T03:32:15;4.50;;;2.33;;
21330;SDS011;10824;51.632;4.950;2023-07-08T03:34:42;2.70;;;1.38;;
21330;SDS011;10824;51.632;4.950;2023-07-08T03:37:09;2.13;;;1.15;;
21330;SDS011;10824;51.632;4.950;2023-07-08T03:39:37;2.30;;;1.70;;
21330;SDS011;10824;51.632;4.950;2023-07-08T03:42:07;1.70;;;1.13;;
21330;SDS011;10824;51.632;4.950;2023-07-08T03:44:34;2.90;;;1.30;;
21330;SDS011;10824;51.632;4.950;2023-07-08T03:47:01;3.17;;;1.67;;
21330;SDS011;10824;51.632;4.950;2023-07-08T03:49:30;3.38;;;1.30;;
21330;SDS011;10824;51.632;4.950;2023-07-08T03:51:57;3.25;;;1.77;;
21330;SDS011;10824;51.632;4.950;2023-07-08T03:54:25;2.83;;;1.38;;
21330;SDS011;10824;51.632;4.950;2023-07-08T03:56:56;2.40;;;1.42;;
21330;SDS011;10824;51.632;4.950;2023-07-08T03:59:25;2.05;;;1.27;;
21330;SDS011;10824;51.632;4.950;2023-07-08T04:01:54;1.65;;;1.15;;
21330;SDS011;10824;51.632;4.950;2023-07-08T04:04:24;3.10;;;1.83;;
21330;SDS011;10824;51.632;4.950;2023-07-08T04:06:51;3.63;;;1.80;;
21330;SDS011;10824;51.632;4.950;2023-07-08T04:09:20;1.52;;;1.10;;
21330;SDS011;10824;51.632;4.950;2023-07-08T04:11:47;3.03;;;1.17;;
21330;SDS011;10824;51.632;4.950;2023-07-08T04:14:16;2.60;;;1.13;;
21330;SDS011;10824;51.632;4.950;2023-07-08T04:16:45;1.88;;;1.17;;
21330;SDS011;10824;51.632;4.950;2023-07-08T04:19:19;3.17;;;1.48;;
21330;SDS011;10824;51.632;4.950;2023-07-08T04:21:46;2.20;;;1.15;;
21330;SDS011;10824;51.632;4.950;2023-07-08T04:24:14;3.17;;;1.30;;
21330;SDS011;10824;51.632;4.950;2023-07-08T04:26:43;1.33;;;1.10;;
21330;SDS011;10824;51.632;4.950;2023-07-08T04:29:15;2.75;;;1.42;;
21330;SDS011;10824;51.632;4.950;2023-07-08T04:31:44;2.70;;;1.55;;
21330;SDS011;10824;51.632;4.950;2023-07-08T04:34:11;3.22;;;1.35;;
21330;SDS011;10824;51.632;4.950;2023-07-08T04:36:38;2.53;;;1.10;;
21330;SDS011;10824;51.632;4.950;2023-07-08T04:39:06;5.28;;;1.80;;
21330;SDS011;10824;51.632;4.950;2023-07-08T04:41:38;3.33;;;1.75;;
21330;SDS011;10824;51.632;4.950;2023-07-08T04:44:11;4.28;;;1.30;;
21330;SDS011;10824;51.632;4.950;2023-07-08T04:46:45;2.67;;;1.40;;
21330;SDS011;10824;51.632;4.950;2023-07-08T04:49:18;3.85;;;1.13;;
21330;SDS011;10824;51.632;4.950;2023-07-08T04:51:47;2.67;;;1.20;;
21330;SDS011;10824;51.632;4.950;2023-07-08T04:54:14;2.47;;;1.42;;
21330;SDS011;10824;51.632;4.950;2023-07-08T04:56:42;3.50;;;1.33;;
21330;SDS011;10824;51.632;4.950;2023-07-08T04:59:12;3.28;;;1.27;;
21330;SDS011;10824;51.632;4.950;2023-07-08T05:01:44;2.20;;;1.50;;
21330;SDS011;10824;51.632;4.950;2023-07-08T05:04:16;2.63;;;1.40;;
21330;SDS011;10824;51.632;4.950;2023-07-08T05:06:44;7.05;;;1.52;;
21330;SDS011;10824;51.632;4.950;2023-07-08T05:09:11;3.00;;;1.33;;
21330;SDS011;10824;51.632;4.950;2023-07-08T05:11:43;2.15;;;1.02;;
21330;SDS011;10824;51.632;4.950;2023-07-08T05:14:11;3.33;;;1.42;;
21330;SDS011;10824;51.632;4.950;2023-07-08T05:16:40;2.42;;;1.70;;
21330;SDS011;10824;51.632;4.950;2023-07-08T05:19:10;3.83;;;1.70;;
21330;SDS011;10824;51.632;4.950;2023-07-08T05:21:37;2.40;;;1.30;;
21330;SDS011;10824;51.632;4.950;2023-07-08T05:24:05;4.68;;;2.05;;
21330;SDS011;10824;51.632;4.950;2023-07-08T05:26:33;3.88;;;1.50;;
21330;SDS011;10824;51.632;4.950;2023-07-08T05:29:00;1.30;;;1.13;;
21330;SDS011;10824;51.632;4.950;2023-07-08T05:31:27;1.77;;;1.38;;
21330;SDS011;10824;51.632;4.950;2023-07-08T05:33:58;1.88;;;1.20;;
21330;SDS011;10824;51.632;4.950;2023-07-08T05:36:25;3.33;;;1.52;;
21330;SDS011;10824;51.632;4.950;2023-07-08T05:38:52;5.05;;;1.45;;
21330;SDS011;10824;51.632;4.950;2023-07-08T05:41:19;3.45;;;1.10;;
21330;SDS011;10824;51.632;4.950;2023-07-08T05:43:46;3.83;;;2.05;;
21330;SDS011;10824;51.632;4.950;2023-07-08T05:46:13;1.92;;;1.27;;
21330;SDS011;10824;51.632;4.950;2023-07-08T05:48:40;3.20;;;1.30;;
21330;SDS011;10824;51.632;4.950;2023-07-08T05:51:09;2.83;;;1.52;;
21330;SDS011;10824;51.632;4.950;2023-07-08T05:53:36;2.92;;;1.20;;
21330;SDS011;10824;51.632;4.950;2023-07-08T05:56:05;4.07;;;1.45;;
21330;SDS011;10824;51.632;4.950;2023-07-08T05:58:32;3.83;;;1.60;;
21330;SDS011;10824;51.632;4.950;2023-07-08T06:01:01;4.07;;;1.85;;
21330;SDS011;10824;51.632;4.950;2023-07-08T06:03:31;2.28;;;1.50;;
21330;SDS011;10824;51.632;4.950;2023-07-08T06:05:58;2.70;;;1.60;;
21330;SDS011;10824;51.632;4.950;2023-07-08T06:08:25;4.25;;;1.25;;
21330;SDS011;10824;51.632;4.950;2023-07-08T06:10:52;6.45;;;1.55;;
21330;SDS011;10824;51.632;4.950;2023-07-08T06:13:19;1.90;;;1.45;;
21330;SDS011;10824;51.632;4.950;2023-07-08T06:15:46;5.13;;;2.25;;
21330;SDS011;10824;51.632;4.950;2023-07-08T06:18:14;5.22;;;1.90;;
21330;SDS011;10824;51.632;4.950;2023-07-08T06:20:41;3.92;;;1.30;;
21330;SDS011;10824;51.632;4.950;2023-07-08T06:23:08;7.35;;;2.33;;
21330;SDS011;10824;51.632;4.950;2023-07-08T06:25:35;1.88;;;1.30;;
21330;SDS011;10824;51.632;4.950;2023-07-08T06:28:03;2.15;;;1.30;;
21330;SDS011;10824;51.632;4.950;2023-07-08T06:30:33;13.07;;;3.67;;
21330;SDS011;10824;51.632;4.950;2023-07-08T06:33:00;4.60;;;2.05;;
21330;SDS011;10824;51.632;4.950;2023-07-08T06:35:28;5.97;;;2.33;;
21330;SDS011;10824;51.632;4.950;2023-07-08T06:37:55;3.63;;;1.80;;
21330;SDS011;10824;51.632;4.950;2023-07-08T06:40:24;3.47;;;1.70;;
21330;SDS011;10824;51.632;4.950;2023-07-08T06:42:51;4.10;;;1.75;;
21330;SDS011;10824;51.632;4.950;2023-07-08T06:45:53;5.72;;;2.08;;
21330;SDS011;10824;51.632;4.950;2023-07-08T06:48:20;4.05;;;2.10;;
21330;SDS011;10824;51.632;4.950;2023-07-08T06:50:48;3.88;;;2.00;;
21330;SDS011;10824;51.632;4.950;2023-07-08T06:53:17;3.08;;;1.70;;
21330;SDS011;10824;51.632;4.950;2023-07-08T06:55:44;6.57;;;1.60;;
21330;SDS011;10824;51.632;4.950;2023-07-08T06:58:13;6.45;;;2.40;;
21330;SDS011;10824;51.632;4.950;2023-07-08T07:00:44;5.35;;;1.98;;
21330;SDS011;10824;51.632;4.950;2023-07-08T07:03:12;4.40;;;2.33;;
21330;SDS011;10824;51.632;4.950;2023-07-08T07:05:40;5.97;;;2.38;;
21330;SDS011;10824;51.632;4.950;2023-07-08T07:08:07;4.57;;;2.08;;
21330;SDS011;10824;51.632;4.950;2023-07-08T07:10:34;6.22;;;2.40;;
21330;SDS011;10824;51.632;4.950;2023-07-08T07:13:03;7.88;;;2.45;;
21330;SDS011;10824;51.632;4.950;2023-07-08T07:15:30;6.07;;;2.25;;
21330;SDS011;10824;51.632;4.950;2023-07-08T07:17:59;4.55;;;2.05;;
21330;SDS011;10824;51.632;4.950;2023-07-08T07:20:28;5.65;;;2.22;;
21330;SDS011;10824;51.632;4.950;2023-07-08T07:22:58;4.93;;;2.22;;
21330;SDS011;10824;51.632;4.950;2023-07-08T07:25:28;4.00;;;2.00;;
21330;SDS011;10824;51.632;4.950;2023-07-08T07:28:03;6.50;;;2.35;;
21330;SDS011;10824;51.632;4.950;2023-07-08T07:30:31;6.38;;;3.42;;
21330;SDS011;10824;51.632;4.950;2023-07-08T07:33:04;5.10;;;2.35;;
21330;SDS011;10824;51.632;4.950;2023-07-08T07:35:33;14.55;;;4.07;;
21330;SDS011;10824;51.632;4.950;2023-07-08T07:38:00;4.03;;;2.13;;
21330;SDS011;10824;51.632;4.950;2023-07-08T07:40:30;4.88;;;2.20;;
21330;SDS011;10824;51.632;4.950;2023-07-08T07:43:01;3.25;;;1.67;;
21330;SDS011;10824;51.632;4.950;2023-07-08T07:45:29;2.85;;;1.58;;
21330;SDS011;10824;51.632;4.950;2023-07-08T07:47:59;3.90;;;2.00;;
21330;SDS011;10824;51.632;4.950;2023-07-08T07:50:26;4.10;;;1.92;;
21330;SDS011;10824;51.632;4.950;2023-07-08T07:52:54;5.03;;;2.22;;
21330;SDS011;10824;51.632;4.950;2023-07-08T07:55:22;6.30;;;2.17;;
21330;SDS011;10824;51.632;4.950;2023-07-08T07:57:54;5.72;;;2.00;;
21330;SDS011;10824;51.632;4.950;2023-07-08T08:00:29;4.82;;;2.15;;
21330;SDS011;10824;51.632;4.950;2023-07-08T08:02:56;2.85;;;1.80;;
21330;SDS011;10824;51.632;4.950;2023-07-08T08:05:25;4.00;;;1.95;;
21330;SDS011;10824;51.632;4.950;2023-07-08T08:07:53;5.38;;;2.70;;
21330;SDS011;10824;51.632;4.950;2023-07-08T08:10:23;4.25;;;2.20;;
21330;SDS011;10824;51.632;4.950;2023-07-08T08:12:50;5.40;;;2.72;;
21330;SDS011;10824;51.632;4.950;2023-07-08T08:15:20;4.80;;;2.20;;
21330;SDS011;10824;51.632;4.950;2023-07-08T08:17:49;5.43;;;2.25;;
21330;SDS011;10824;51.632;4.950;2023-07-08T08:20:19;3.42;;;2.20;;
21330;SDS011;10824;51.632;4.950;2023-07-08T08:22:48;5.30;;;2.00;;
21330;SDS011;10824;51.632;4.950;2023-07-08T08:25:17;4.00;;;1.85;;
21330;SDS011;10824;51.632;4.950;2023-07-08T08:27:46;6.30;;;1.95;;
21330;SDS011;10824;51.632;4.950;2023-07-08T08:30:13;4.97;;;2.00;;
21330;SDS011;10824;51.632;4.950;2023-07-08T08:32:42;4.32;;;2.15;;
21330;SDS011;10824;51.632;4.950;2023-07-08T08:35:11;6.45;;;2.17;;
21330;SDS011;10824;51.632;4.950;2023-07-08T08:37:39;4.68;;;2.63;;
21330;SDS011;10824;51.632;4.950;2023-07-08T08:40:07;4.28;;;2.17;;
21330;SDS011;10824;51.632;4.950;2023-07-08T08:42:44;5.18;;;2.22;;
21330;SDS011;10824;51.632;4.950;2023-07-08T08:45:18;4.38;;;2.05;;
21330;SDS011;10824;51.632;4.950;2023-07-08T08:47:49;7.50;;;2.30;;
21330;SDS011;10824;51.632;4.950;2023-07-08T08:50:26;4.75;;;2.40;;
21330;SDS011;10824;51.632;4.950;2023-07-08T08:52:59;7.68;;;2.90;;
21330;SDS011;10824;51.632;4.950;2023-07-08T08:55:28;8.13;;;2.88;;
21330;SDS011;10824;51.632;4.950;2023-07-08T09:00:24;9.40;;;3.10;;
21330;SDS011;10824;51.632;4.950;2023-07-08T09:03:16;5.05;;;2.15;;
21330;SDS011;10824;51.632;4.950;2023-07-08T09:05:46;5.32;;;2.05;;
21330;SDS011;10824;51.632;4.950;2023-07-08T09:08:35;5.63;;;2.30;;
21330;SDS011;10824;51.632;4.950;2023-07-08T09:13:47;6.45;;;2.25;;
21330;SDS011;10824;51.632;4.950;2023-07-08T09:19:12;4.28;;;1.98;;
21330;SDS011;10824;51.632;4.950;2023-07-08T09:22:02;5.55;;;2.30;;
21330;SDS011;10824;51.632;4.950;2023-07-08T09:27:07;4.45;;;2.20;;
21330;SDS011;10824;51.632;4.950;2023-07-08T09:29:35;6.38;;;2.67;;
21330;SDS011;10824;51.632;4.950;2023-07-08T09:32:11;7.22;;;2.70;;
21330;SDS011;10824;51.632;4.950;2023-07-08T09:34:51;5.35;;;2.83;;
21330;SDS011;10824;51.632;4.950;2023-07-08T09:37:25;6.95;;;2.13;;
21330;SDS011;10824;51.632;4.950;2023-07-08T09:39:54;9.35;;;4.15;;
21330;SDS011;10824;51.632;4.950;2023-07-08T09:42:25;6.35;;;2.20;;
21330;SDS011;10824;51.632;4.950;2023-07-08T09:45:00;5.90;;;2.35;;
21330;SDS011;10824;51.632;4.950;2023-07-08T09:47:36;5.00;;;2.40;;
21330;SDS011;10824;51.632;4.950;2023-07-08T09:50:26;6.07;;;2.53;;
21330;SDS011;10824;51.632;4.950;2023-07-08T09:52:56;5.28;;;2.65;;
21330;SDS011;10824;51.632;4.950;2023-07-08T09:55:26;3.90;;;2.40;;
21330;SDS011;10824;51.632;4.950;2023-07-08T09:57:55;5.35;;;2.17;;
21330;SDS011;10824;51.632;4.950;2023-07-08T10:00:28;3.90;;;2.47;;
21330;SDS011;10824;51.632;4.950;2023-07-08T10:03:08;6.15;;;2.65;;
21330;SDS011;10824;51.632;4.950;2023-07-08T10:05:43;4.97;;;2.33;;
21330;SDS011;10824;51.632;4.950;2023-07-08T10:08:19;6.68;;;2.80;;
21330;SDS011;10824;51.632;4.950;2023-07-08T10:11:01;3.88;;;2.13;;
21330;SDS011;10824;51.632;4.950;2023-07-08T10:13:40;6.40;;;2.55;;
21330;SDS011;10824;51.632;4.950;2023-07-08T10:18:51;8.82;;;4.60;;
21330;SDS011;10824;51.632;4.950;2023-07-08T10:24:40;11.52;;;2.97;;
21330;SDS011;10824;51.632;4.950;2023-07-08T10:27:36;8.80;;;2.65;;
21330;SDS011;10824;51.632;4.950;2023-07-08T10:30:22;6.07;;;3.00;;
21330;SDS011;10824;51.632;4.950;2023-07-08T10:35:49;6.03;;;2.53;;
21330;SDS011;10824;51.632;4.950;2023-07-08T10:38:38;5.68;;;2.53;;
21330;SDS011;10824;51.632;4.950;2023-07-08T10:41:30;5.45;;;2.30;;
21330;SDS011;10824;51.632;4.950;2023-07-08T10:52:31;9.23;;;3.08;;
21330;SDS011;10824;51.632;4.950;2023-07-08T10:58:17;6.90;;;2.67;;
21330;SDS011;10824;51.632;4.950;2023-07-08T11:08:55;7.20;;;2.53;;
21330;SDS011;10824;51.632;4.950;2023-07-08T11:11:32;4.20;;;2.20;;
21330;SDS011;10824;51.632;4.950;2023-07-08T11:14:11;7.57;;;2.35;;
21330;SDS011;10824;51.632;4.950;2023-07-08T11:16:45;5.97;;;3.10;;
21330;SDS011;10824;51.632;4.950;2023-07-08T11:19:21;5.82;;;2.10;;
21330;SDS011;10824;51.632;4.950;2023-07-08T11:22:09;7.32;;;2.50;;
21330;SDS011;10824;51.632;4.950;2023-07-08T11:24:46;7.70;;;2.15;;
21330;SDS011;10824;51.632;4.950;2023-07-08T11:27:16;5.15;;;1.92;;
21330;SDS011;10824;51.632;4.950;2023-07-08T11:32:37;4.60;;;2.45;;
21330;SDS011;10824;51.632;4.950;2023-07-08T11:35:06;6.47;;;2.28;;
21330;SDS011;10824;51.632;4.950;2023-07-08T11:38:00;4.65;;;2.10;;
21330;SDS011;10824;51.632;4.950;2023-07-08T11:40:30;10.23;;;3.40;;
21330;SDS011;10824;51.632;4.950;2023-07-08T11:43:02;6.53;;;3.13;;
21330;SDS011;10824;51.632;4.950;2023-07-08T11:45:34;8.25;;;2.65;;
21330;SDS011;10824;51.632;4.950;2023-07-08T11:50:44;4.05;;;2.25;;
21330;SDS011;10824;51.632;4.950;2023-07-08T11:55:57;3.88;;;1.83;;
21330;SDS011;10824;51.632;4.950;2023-07-08T11:58:27;11.07;;;2.57;;
21330;SDS011;10824;51.632;4.950;2023-07-08T12:03:39;3.15;;;2.28;;
21330;SDS011;10824;51.632;4.950;2023-07-08T12:08:54;5.88;;;2.58;;
21330;SDS011;10824;51.632;4.950;2023-07-08T12:11:40;4.28;;;2.30;;
21330;SDS011;10824;51.632;4.950;2023-07-08T12:14:12;5.32;;;2.40;;
21330;SDS011;10824;51.632;4.950;2023-07-08T12:16:43;4.57;;;2.30;;
21330;SDS011;10824;51.632;4.950;2023-07-08T12:19:11;11.25;;;2.78;;
21330;SDS011;10824;51.632;4.950;2023-07-08T12:21:43;10.18;;;2.53;;
21330;SDS011;10824;51.632;4.950;2023-07-08T12:24:11;3.92;;;1.98;;
21330;SDS011;10824;51.632;4.950;2023-07-08T12:26:40;4.07;;;2.28;;
21330;SDS011;10824;51.632;4.950;2023-07-08T12:29:11;7.70;;;2.38;;
21330;SDS011;10824;51.632;4.950;2023-07-08T12:31:40;4.18;;;2.10;;
21330;SDS011;10824;51.632;4.950;2023-07-08T12:34:13;7.55;;;2.22;;
21330;SDS011;10824;51.632;4.950;2023-07-08T12:36:43;5.88;;;2.30;;
21330;SDS011;10824;51.632;4.950;2023-07-08T12:39:14;3.63;;;1.90;;
21330;SDS011;10824;51.632;4.950;2023-07-08T12:41:43;4.88;;;2.47;;
21330;SDS011;10824;51.632;4.950;2023-07-08T12:44:19;5.93;;;2.60;;
21330;SDS011;10824;51.632;4.950;2023-07-08T12:46:49;7.68;;;3.08;;
21330;SDS011;10824;51.632;4.950;2023-07-08T12:51:46;9.30;;;3.30;;
21330;SDS011;10824;51.632;4.950;2023-07-08T12:54:14;6.30;;;2.30;;
21330;SDS011;10824;51.632;4.950;2023-07-08T12:56:43;4.68;;;2.33;;
21330;SDS011;10824;51.632;4.950;2023-07-08T12:59:14;5.72;;;1.98;;
21330;SDS011;10824;51.632;4.950;2023-07-08T13:01:46;5.75;;;2.55;;
21330;SDS011;10824;51.632;4.950;2023-07-08T13:04:15;4.30;;;2.20;;
21330;SDS011;10824;51.632;4.950;2023-07-08T13:06:44;6.00;;;2.15;;
21330;SDS011;10824;51.632;4.950;2023-07-08T13:11:45;3.70;;;2.40;;
21330;SDS011;10824;51.632;4.950;2023-07-08T13:14:14;4.50;;;2.30;;
21330;SDS011;10824;51.632;4.950;2023-07-08T13:16:43;7.45;;;2.33;;
21330;SDS011;10824;51.632;4.950;2023-07-08T13:19:11;8.27;;;2.83;;
21330;SDS011;10824;51.632;4.950;2023-07-08T13:21:43;4.95;;;2.38;;
21330;SDS011;10824;51.632;4.950;2023-07-08T13:24:11;5.28;;;2.55;;
21330;SDS011;10824;51.632;4.950;2023-07-08T13:26:38;8.15;;;2.00;;
21330;SDS011;10824;51.632;4.950;2023-07-08T13:29:16;8.00;;;2.42;;
21330;SDS011;10824;51.632;4.950;2023-07-08T13:31:49;3.00;;;1.55;;
21330;SDS011;10824;51.632;4.950;2023-07-08T13:34:20;5.00;;;1.80;;
21330;SDS011;10824;51.632;4.950;2023-07-08T13:36:51;5.20;;;2.20;;
21330;SDS011;10824;51.632;4.950;2023-07-08T13:39:31;8.20;;;2.38;;
21330;SDS011;10824;51.632;4.950;2023-07-08T13:42:01;9.00;;;2.00;;
21330;SDS011;10824;51.632;4.950;2023-07-08T13:44:29;4.85;;;2.05;;
21330;SDS011;10824;51.632;4.950;2023-07-08T13:46:57;3.95;;;1.88;;
21330;SDS011;10824;51.632;4.950;2023-07-08T13:49:30;5.07;;;2.63;;
21330;SDS011;10824;51.632;4.950;2023-07-08T13:54:50;6.40;;;2.10;;
21330;SDS011;10824;51.632;4.950;2023-07-08T13:57:29;4.53;;;2.13;;
21330;SDS011;10824;51.632;4.950;2023-07-08T14:00:00;6.03;;;2.88;;
21330;SDS011;10824;51.632;4.950;2023-07-08T14:02:37;4.78;;;2.38;;
21330;SDS011;10824;51.632;4.950;2023-07-08T14:05:09;4.28;;;2.33;;
21330;SDS011;10824;51.632;4.950;2023-07-08T14:07:43;6.68;;;2.30;;
21330;SDS011;10824;51.632;4.950;2023-07-08T14:12:39;6.05;;;2.58;;
21330;SDS011;10824;51.632;4.950;2023-07-08T14:15:06;10.55;;;2.35;;
21330;SDS011;10824;51.632;4.950;2023-07-08T14:17:35;10.73;;;2.17;;
21330;SDS011;10824;51.632;4.950;2023-07-08T14:20:09;6.50;;;2.38;;
21330;SDS011;10824;51.632;4.950;2023-07-08T14:22:42;6.22;;;2.42;;
21330;SDS011;10824;51.632;4.950;2023-07-08T14:25:10;6.88;;;2.85;;
21330;SDS011;10824;51.632;4.950;2023-07-08T14:30:08;3.95;;;1.92;;
21330;SDS011;10824;51.632;4.950;2023-07-08T14:32:36;4.38;;;2.08;;
21330;SDS011;10824;51.632;4.950;2023-07-08T14:35:23;5.07;;;1.83;;
21330;SDS011;10824;51.632;4.950;2023-07-08T14:37:51;4.00;;;2.13;;
21330;SDS011;10824;51.632;4.950;2023-07-08T14:43:03;4.50;;;2.20;;
21330;SDS011;10824;51.632;4.950;2023-07-08T14:45:37;6.07;;;2.20;;
21330;SDS011;10824;51.632;4.950;2023-07-08T14:48:12;3.88;;;1.58;;
21330;SDS011;10824;51.632;4.950;2023-07-08T14:50:41;5.95;;;2.65;;
21330;SDS011;10824;51.632;4.950;2023-07-08T14:53:15;5.35;;;2.33;;
21330;SDS011;10824;51.632;4.950;2023-07-08T14:55:44;3.90;;;1.88;;
21330;SDS011;10824;51.632;4.950;2023-07-08T14:58:17;8.65;;;1.70;;
21330;SDS011;10824;51.632;4.950;2023-07-08T15:00:54;4.07;;;1.77;;
21330;SDS011;10824;51.632;4.950;2023-07-08T15:03:26;6.47;;;1.98;;
21330;SDS011;10824;51.632;4.950;2023-07-08T15:06:00;5.65;;;2.58;;
21330;SDS011;10824;51.632;4.950;2023-07-08T15:08:28;3.47;;;1.98;;
21330;SDS011;10824;51.632;4.950;2023-07-08T15:10:56;6.40;;;2.42;;
21330;SDS011;10824;51.632;4.950;2023-07-08T15:13:26;6.03;;;1.92;;
21330;SDS011;10824;51.632;4.950;2023-07-08T15:15:55;5.00;;;2.25;;
21330;SDS011;10824;51.632;4.950;2023-07-08T15:18:23;5.50;;;2.42;;
21330;SDS011;10824;51.632;4.950;2023-07-08T15:20:51;3.40;;;1.95;;
21330;SDS011;10824;51.632;4.950;2023-07-08T15:23:19;3.05;;;1.50;;
21330;SDS011;10824;51.632;4.950;2023-07-08T15:25:48;5.95;;;1.70;;
21330;SDS011;10824;51.632;4.950;2023-07-08T15:28:19;3.50;;;1.90;;
21330;SDS011;10824;51.632;4.950;2023-07-08T15:30:59;6.78;;;1.80;;
21330;SDS011;10824;51.632;4.950;2023-07-08T15:33:29;7.03;;;2.38;;
21330;SDS011;10824;51.632;4.950;2023-07-08T15:35:56;5.07;;;1.80;;
21330;SDS011;10824;51.632;4.950;2023-07-08T15:38:24;9.10;;;2.70;;
21330;SDS011;10824;51.632;4.950;2023-07-08T15:40:51;5.68;;;1.55;;
21330;SDS011;10824;51.632;4.950;2023-07-08T15:43:19;6.60;;;1.83;;
21330;SDS011;10824;51.632;4.950;2023-07-08T15:45:46;5.10;;;1.42;;
21330;SDS011;10824;51.632;4.950;2023-07-08T15:48:34;4.90;;;1.48;;
21330;SDS011;10824;51.632;4.950;2023-07-08T15:51:01;4.75;;;1.30;;
21330;SDS011;10824;51.632;4.950;2023-07-08T15:53:29;3.60;;;1.25;;
21330;SDS011;10824;51.632;4.950;2023-07-08T15:55:57;6.57;;;1.40;;
21330;SDS011;10824;51.632;4.950;2023-07-08T15:58:27;5.13;;;1.00;;
21330;SDS011;10824;51.632;4.950;2023-07-08T16:00:58;3.97;;;1.17;;
21330;SDS011;10824;51.632;4.950;2023-07-08T16:03:29;4.90;;;1.70;;
21330;SDS011;10824;51.632;4.950;2023-07-08T16:05:58;3.00;;;1.30;;
21330;SDS011;10824;51.632;4.950;2023-07-08T16:08:26;1.98;;;0.90;;
21330;SDS011;10824;51.632;4.950;2023-07-08T16:11:03;2.58;;;1.08;;
21330;SDS011;10824;51.632;4.950;2023-07-08T16:13:40;1.90;;;1.10;;
21330;SDS011;10824;51.632;4.950;2023-07-08T16:16:12;3.53;;;1.10;;
21330;SDS011;10824;51.632;4.950;2023-07-08T16:18:39;4.45;;;1.02;;
21330;SDS011;10824;51.632;4.950;2023-07-08T16:21:07;2.53;;;1.00;;